sensor_id;sensor_type;location;lat;lon;timestamp;temperature;humidity
7654;DHT22;3869;48.406;10.774;2023-02-28T00:00:41;-1.40;99.90
7654;DHT22;3869;48.406;10.774;2023-02-28T00:03:09;-1.50;99.90
7654;DHT22;3869;48.406;10.774;2023-02-28T00:05:38;-1.50;99.90
7654;DHT22;3869;48.406;10.774;2023-02-28T00:08:06;-1.50;99.90
7654;DHT22;3869;48.406;10.774;2023-02-28T00:10:35;-1.50;99.90
7654;DHT22;3869;48.406;10.774;2023-02-28T00:13:05;-1.50;99.90
7654;DHT22;3869;48.406;10.774;2023-02-28T00:15:33;-1.50;99.90
7654;DHT22;3869;48.406;10.774;2023-02-28T00:18:02;-1.60;99.90
7654;DHT22;3869;48.406;10.774;2023-02-28T00:20:30;-1.60;99.90
7654;DHT22;3869;48.406;10.774;2023-02-28T00:22:58;-1.70;99.90
7654;DHT22;3869;48.406;10.774;2023-02-28T00:25:25;-1.60;99.90
7654;DHT22;3869;48.406;10.774;2023-02-28T00:27:55;-1.70;99.90
7654;DHT22;3869;48.406;10.774;2023-02-28T00:30:23;-1.70;99.90
7654;DHT22;3869;48.406;10.774;2023-02-28T00:32:51;-1.70;99.90
7654;DHT22;3869;48.406;10.774;2023-02-28T00:35:19;-1.70;99.90
7654;DHT22;3869;48.406;10.774;2023-02-28T00:37:48;-1.70;99.90
7654;DHT22;3869;48.406;10.774;2023-02-28T00:40:16;-1.70;99.90
7654;DHT22;3869;48.406;10.774;2023-02-28T00:42:44;-1.70;99.90
7654;DHT22;3869;48.406;10.774;2023-02-28T00:45:13;-1.80;99.90
7654;DHT22;3869;48.406;10.774;2023-02-28T00:47:41;-1.80;99.90
7654;DHT22;3869;48.406;10.774;2023-02-28T00:50:10;-1.80;99.90
7654;DHT22;3869;48.406;10.774;2023-02-28T00:52:38;-1.80;99.90
7654;DHT22;3869;48.406;10.774;2023-02-28T00:55:07;-1.90;99.90
7654;DHT22;3869;48.406;10.774;2023-02-28T00:57:35;-1.90;99.90
7654;DHT22;3869;48.406;10.774;2023-02-28T01:00:04;-1.90;99.90
7654;DHT22;3869;48.406;10.774;2023-02-28T01:02:34;-1.90;99.90
7654;DHT22;3869;48.406;10.774;2023-02-28T01:05:02;-1.90;99.90
7654;DHT22;3869;48.406;10.774;2023-02-28T01:07:30;-1.90;99.90
7654;DHT22;3869;48.406;10.774;2023-02-28T01:09:58;-1.90;99.90
7654;DHT22;3869;48.406;10.774;2023-02-28T01:12:26;-1.90;99.90
7654;DHT22;3869;48.406;10.774;2023-02-28T01:14:56;-1.90;99.90
7654;DHT22;3869;48.406;10.774;2023-02-28T01:17:24;-2.00;99.90
7654;DHT22;3869;48.406;10.774;2023-02-28T01:19:55;-1.90;99.90
7654;DHT22;3869;48.406;10.774;2023-02-28T01:22:23;-1.90;99.90
7654;DHT22;3869;48.406;10.774;2023-02-28T01:24:51;-1.90;99.90
7654;DHT22;3869;48.406;10.774;2023-02-28T01:27:19;-1.90;99.90
7654;DHT22;3869;48.406;10.774;2023-02-28T01:29:47;-1.90;99.90
7654;DHT22;3869;48.406;10.774;2023-02-28T01:32:15;-1.90;99.90
7654;DHT22;3869;48.406;10.774;2023-02-28T01:34:43;-2.00;99.90
7654;DHT22;3869;48.406;10.774;2023-02-28T01:37:12;-2.00;99.90
7654;DHT22;3869;48.406;10.774;2023-02-28T01:39:40;-2.00;99.90
7654;DHT22;3869;48.406;10.774;2023-02-28T01:42:09;-2.00;99.90
7654;DHT22;3869;48.406;10.774;2023-02-28T01:45:02;-2.00;99.90
7654;DHT22;3869;48.406;10.774;2023-02-28T01:47:33;-2.00;99.90
7654;DHT22;3869;48.406;10.774;2023-02-28T01:50:05;-2.00;99.90
7654;DHT22;3869;48.406;10.774;2023-02-28T01:52:35;-2.00;99.90
7654;DHT22;3869;48.406;10.774;2023-02-28T01:55:06;-2.00;99.90
7654;DHT22;3869;48.406;10.774;2023-02-28T01:57:37;-2.00;99.90
7654;DHT22;3869;48.406;10.774;2023-02-28T02:00:08;-1.90;99.90
7654;DHT22;3869;48.406;10.774;2023-02-28T02:02:41;-2.00;99.90
7654;DHT22;3869;48.406;10.774;2023-02-28T02:05:12;-2.00;99.90
7654;DHT22;3869;48.406;10.774;2023-02-28T02:07:45;-1.90;99.90
7654;DHT22;3869;48.406;10.774;2023-02-28T02:10:15;-1.90;99.90
7654;DHT22;3869;48.406;10.774;2023-02-28T02:13:13;-2.00;99.90
7654;DHT22;3869;48.406;10.774;2023-02-28T02:15:52;-2.00;99.90
7654;DHT22;3869;48.406;10.774;2023-02-28T02:18:27;-1.90;99.90
7654;DHT22;3869;48.406;10.774;2023-02-28T02:21:21;-1.90;99.90
7654;DHT22;3869;48.406;10.774;2023-02-28T02:27:08;-2.00;99.90
7654;DHT22;3869;48.406;10.774;2023-02-28T02:29:51;-2.00;99.90
7654;DHT22;3869;48.406;10.774;2023-02-28T02:33:00;-2.00;99.90
7654;DHT22;3869;48.406;10.774;2023-02-28T02:35:35;-2.00;99.90
7654;DHT22;3869;48.406;10.774;2023-02-28T02:38:09;-2.00;99.90
7654;DHT22;3869;48.406;10.774;2023-02-28T02:40:43;-2.00;99.90
7654;DHT22;3869;48.406;10.774;2023-02-28T02:43:16;-2.10;99.90
7654;DHT22;3869;48.406;10.774;2023-02-28T02:45:51;-2.10;99.90
7654;DHT22;3869;48.406;10.774;2023-02-28T02:48:21;-2.10;99.90
7654;DHT22;3869;48.406;10.774;2023-02-28T02:50:55;-2.10;99.90
7654;DHT22;3869;48.406;10.774;2023-02-28T02:53:27;-2.10;99.90
7654;DHT22;3869;48.406;10.774;2023-02-28T02:55:58;-2.10;99.90
7654;DHT22;3869;48.406;10.774;2023-02-28T02:58:30;-2.10;99.90
7654;DHT22;3869;48.406;10.774;2023-02-28T03:01:01;-2.10;99.90
7654;DHT22;3869;48.406;10.774;2023-02-28T03:03:30;-2.10;99.90
7654;DHT22;3869;48.406;10.774;2023-02-28T03:06:01;-2.00;99.90
7654;DHT22;3869;48.406;10.774;2023-02-28T03:08:35;-2.00;99.90
7654;DHT22;3869;48.406;10.774;2023-02-28T03:11:05;-2.10;99.90
7654;DHT22;3869;48.406;10.774;2023-02-28T03:14:16;-2.00;99.90
7654;DHT22;3869;48.406;10.774;2023-02-28T03:17:04;-2.10;99.90
7654;DHT22;3869;48.406;10.774;2023-02-28T03:19:42;-2.10;99.90
7654;DHT22;3869;48.406;10.774;2023-02-28T03:22:23;-2.10;99.90
7654;DHT22;3869;48.406;10.774;2023-02-28T03:24:59;-2.00;99.90
7654;DHT22;3869;48.406;10.774;2023-02-28T03:27:30;-2.00;99.90
7654;DHT22;3869;48.406;10.774;2023-02-28T03:30:01;-2.00;99.90
7654;DHT22;3869;48.406;10.774;2023-02-28T03:32:36;-2.00;99.90
7654;DHT22;3869;48.406;10.774;2023-02-28T03:35:09;-2.00;99.90
7654;DHT22;3869;48.406;10.774;2023-02-28T03:37:42;-2.00;99.90
7654;DHT22;3869;48.406;10.774;2023-02-28T03:40:14;-2.00;99.90
7654;DHT22;3869;48.406;10.774;2023-02-28T03:42:46;-2.00;99.90
7654;DHT22;3869;48.406;10.774;2023-02-28T03:45:17;-2.00;99.90
7654;DHT22;3869;48.406;10.774;2023-02-28T03:47:49;-2.00;99.90
7654;DHT22;3869;48.406;10.774;2023-02-28T03:50:21;-2.00;99.90
7654;DHT22;3869;48.406;10.774;2023-02-28T03:52:55;-2.00;99.90
7654;DHT22;3869;48.406;10.774;2023-02-28T03:55:30;-2.00;99.90
7654;DHT22;3869;48.406;10.774;2023-02-28T03:58:05;-2.10;99.90
7654;DHT22;3869;48.406;10.774;2023-02-28T04:00:39;-2.10;99.90
7654;DHT22;3869;48.406;10.774;2023-02-28T04:03:07;-2.10;99.90
7654;DHT22;3869;48.406;10.774;2023-02-28T04:05:47;-2.10;99.90
7654;DHT22;3869;48.406;10.774;2023-02-28T04:08:18;-2.10;99.90
7654;DHT22;3869;48.406;10.774;2023-02-28T04:10:50;-2.10;99.90
7654;DHT22;3869;48.406;10.774;2023-02-28T04:13:19;-2.10;99.90
7654;DHT22;3869;48.406;10.774;2023-02-28T04:15:47;-2.10;99.90
7654;DHT22;3869;48.406;10.774;2023-02-28T04:18:15;-2.10;99.90
7654;DHT22;3869;48.406;10.774;2023-02-28T04:20:43;-2.10;99.90
7654;DHT22;3869;48.406;10.774;2023-02-28T04:23:10;-2.10;99.90
7654;DHT22;3869;48.406;10.774;2023-02-28T04:25:40;-2.10;99.90
7654;DHT22;3869;48.406;10.774;2023-02-28T04:28:08;-2.00;99.90
7654;DHT22;3869;48.406;10.774;2023-02-28T04:30:37;-2.00;99.90
7654;DHT22;3869;48.406;10.774;2023-02-28T04:33:06;-2.10;99.90
7654;DHT22;3869;48.406;10.774;2023-02-28T04:35:34;-2.10;99.90
7654;DHT22;3869;48.406;10.774;2023-02-28T04:38:02;-2.10;99.90
7654;DHT22;3869;48.406;10.774;2023-02-28T04:40:30;-2.10;99.90
7654;DHT22;3869;48.406;10.774;2023-02-28T04:42:59;-2.10;99.90
7654;DHT22;3869;48.406;10.774;2023-02-28T04:45:27;-2.10;99.90
7654;DHT22;3869;48.406;10.774;2023-02-28T04:47:58;-2.10;99.90
7654;DHT22;3869;48.406;10.774;2023-02-28T04:50:26;-2.20;99.90
7654;DHT22;3869;48.406;10.774;2023-02-28T04:52:54;-2.20;99.90
7654;DHT22;3869;48.406;10.774;2023-02-28T04:55:22;-2.20;99.90
7654;DHT22;3869;48.406;10.774;2023-02-28T04:57:50;-2.10;99.90
7654;DHT22;3869;48.406;10.774;2023-02-28T05:00:20;-2.20;99.90
7654;DHT22;3869;48.406;10.774;2023-02-28T05:02:48;-2.20;99.90
7654;DHT22;3869;48.406;10.774;2023-02-28T05:05:16;-2.20;99.90
7654;DHT22;3869;48.406;10.774;2023-02-28T05:07:44;-2.20;99.90
7654;DHT22;3869;48.406;10.774;2023-02-28T05:10:12;-2.20;99.90
7654;DHT22;3869;48.406;10.774;2023-02-28T05:12:40;-2.20;99.90
7654;DHT22;3869;48.406;10.774;2023-02-28T05:15:12;-2.20;99.90
7654;DHT22;3869;48.406;10.774;2023-02-28T05:17:42;-2.20;99.90
7654;DHT22;3869;48.406;10.774;2023-02-28T05:22:49;-2.20;99.90
7654;DHT22;3869;48.406;10.774;2023-02-28T05:25:20;-2.20;99.90
7654;DHT22;3869;48.406;10.774;2023-02-28T05:27:48;-2.30;99.90
7654;DHT22;3869;48.406;10.774;2023-02-28T05:30:17;-2.30;99.90
7654;DHT22;3869;48.406;10.774;2023-02-28T05:32:50;-2.20;99.90
7654;DHT22;3869;48.406;10.774;2023-02-28T05:35:18;-2.30;99.90
7654;DHT22;3869;48.406;10.774;2023-02-28T05:37:46;-2.30;99.90
7654;DHT22;3869;48.406;10.774;2023-02-28T05:40:14;-2.30;99.90
7654;DHT22;3869;48.406;10.774;2023-02-28T05:42:43;-2.30;99.90
7654;DHT22;3869;48.406;10.774;2023-02-28T05:45:11;-2.30;99.90
7654;DHT22;3869;48.406;10.774;2023-02-28T05:47:41;-2.30;99.90
7654;DHT22;3869;48.406;10.774;2023-02-28T05:50:11;-2.30;99.90
7654;DHT22;3869;48.406;10.774;2023-02-28T05:52:39;-2.30;99.90
7654;DHT22;3869;48.406;10.774;2023-02-28T05:55:08;-2.30;99.90
7654;DHT22;3869;48.406;10.774;2023-02-28T05:57:36;-2.20;99.90
7654;DHT22;3869;48.406;10.774;2023-02-28T06:00:05;-2.20;99.90
7654;DHT22;3869;48.406;10.774;2023-02-28T06:02:33;-2.20;99.90
7654;DHT22;3869;48.406;10.774;2023-02-28T06:05:01;-2.30;99.90
7654;DHT22;3869;48.406;10.774;2023-02-28T06:07:30;-2.30;99.90
7654;DHT22;3869;48.406;10.774;2023-02-28T06:09:58;-2.30;99.90
7654;DHT22;3869;48.406;10.774;2023-02-28T06:12:26;-2.30;99.90
7654;DHT22;3869;48.406;10.774;2023-02-28T06:14:54;-2.30;99.90
7654;DHT22;3869;48.406;10.774;2023-02-28T06:17:22;-2.30;99.90
7654;DHT22;3869;48.406;10.774;2023-02-28T06:19:50;-2.30;99.90
7654;DHT22;3869;48.406;10.774;2023-02-28T06:22:18;-2.30;99.90
7654;DHT22;3869;48.406;10.774;2023-02-28T06:24:47;-2.40;99.90
7654;DHT22;3869;48.406;10.774;2023-02-28T06:27:15;-2.40;99.90
7654;DHT22;3869;48.406;10.774;2023-02-28T06:29:43;-2.30;99.90
7654;DHT22;3869;48.406;10.774;2023-02-28T06:32:11;-2.30;99.90
7654;DHT22;3869;48.406;10.774;2023-02-28T06:34:39;-2.30;99.90
7654;DHT22;3869;48.406;10.774;2023-02-28T06:37:07;-2.30;99.90
7654;DHT22;3869;48.406;10.774;2023-02-28T06:39:35;-2.30;99.90
7654;DHT22;3869;48.406;10.774;2023-02-28T06:42:05;-2.30;99.90
7654;DHT22;3869;48.406;10.774;2023-02-28T06:44:33;-2.30;99.90
7654;DHT22;3869;48.406;10.774;2023-02-28T06:47:03;-2.30;99.90
7654;DHT22;3869;48.406;10.774;2023-02-28T06:49:32;-2.30;99.90
7654;DHT22;3869;48.406;10.774;2023-02-28T06:52:01;-2.30;99.90
7654;DHT22;3869;48.406;10.774;2023-02-28T06:54:29;-2.30;99.90
7654;DHT22;3869;48.406;10.774;2023-02-28T06:56:57;-2.30;99.90
7654;DHT22;3869;48.406;10.774;2023-02-28T06:59:27;-2.30;99.90
7654;DHT22;3869;48.406;10.774;2023-02-28T07:01:55;-2.30;99.90
7654;DHT22;3869;48.406;10.774;2023-02-28T07:04:23;-2.20;99.90
7654;DHT22;3869;48.406;10.774;2023-02-28T07:06:51;-2.30;99.90
7654;DHT22;3869;48.406;10.774;2023-02-28T07:09:19;-2.30;99.90
7654;DHT22;3869;48.406;10.774;2023-02-28T07:11:47;-2.30;99.90
7654;DHT22;3869;48.406;10.774;2023-02-28T07:14:15;-2.30;99.90
7654;DHT22;3869;48.406;10.774;2023-02-28T07:16:44;-2.20;99.90
7654;DHT22;3869;48.406;10.774;2023-02-28T07:19:13;-2.20;99.90
7654;DHT22;3869;48.406;10.774;2023-02-28T07:21:40;-2.20;99.90
7654;DHT22;3869;48.406;10.774;2023-02-28T07:24:08;-2.20;99.90
7654;DHT22;3869;48.406;10.774;2023-02-28T07:26:37;-2.30;99.90
7654;DHT22;3869;48.406;10.774;2023-02-28T07:29:04;-2.20;99.90
7654;DHT22;3869;48.406;10.774;2023-02-28T07:31:32;-2.20;99.90
7654;DHT22;3869;48.406;10.774;2023-02-28T07:34:02;-2.20;99.90
7654;DHT22;3869;48.406;10.774;2023-02-28T07:36:30;-2.20;99.90
7654;DHT22;3869;48.406;10.774;2023-02-28T07:38:58;-2.30;99.90
7654;DHT22;3869;48.406;10.774;2023-02-28T07:41:26;-2.20;99.90
7654;DHT22;3869;48.406;10.774;2023-02-28T07:43:56;-2.10;99.90
7654;DHT22;3869;48.406;10.774;2023-02-28T07:46:26;-2.10;99.90
7654;DHT22;3869;48.406;10.774;2023-02-28T07:48:56;-2.00;99.90
7654;DHT22;3869;48.406;10.774;2023-02-28T07:51:27;-2.00;99.90
7654;DHT22;3869;48.406;10.774;2023-02-28T07:53:56;-2.00;99.90
7654;DHT22;3869;48.406;10.774;2023-02-28T07:56:24;-2.00;99.90
7654;DHT22;3869;48.406;10.774;2023-02-28T07:58:52;-2.00;99.90
7654;DHT22;3869;48.406;10.774;2023-02-28T08:01:20;-1.90;99.90
7654;DHT22;3869;48.406;10.774;2023-02-28T08:03:48;-2.00;99.90
7654;DHT22;3869;48.406;10.774;2023-02-28T08:06:19;-2.00;99.90
7654;DHT22;3869;48.406;10.774;2023-02-28T08:08:48;-1.80;99.90
7654;DHT22;3869;48.406;10.774;2023-02-28T08:11:17;-1.80;99.90
7654;DHT22;3869;48.406;10.774;2023-02-28T08:13:45;-1.70;99.90
7654;DHT22;3869;48.406;10.774;2023-02-28T08:16:14;-1.70;99.90
7654;DHT22;3869;48.406;10.774;2023-02-28T08:18:48;-1.60;99.90
7654;DHT22;3869;48.406;10.774;2023-02-28T08:21:17;-1.50;99.90
7654;DHT22;3869;48.406;10.774;2023-02-28T08:23:47;-1.40;99.90
7654;DHT22;3869;48.406;10.774;2023-02-28T08:26:16;-1.40;99.90
7654;DHT22;3869;48.406;10.774;2023-02-28T08:28:44;-1.40;99.90
7654;DHT22;3869;48.406;10.774;2023-02-28T08:31:14;-1.30;99.90
7654;DHT22;3869;48.406;10.774;2023-02-28T08:33:43;-1.20;99.90
7654;DHT22;3869;48.406;10.774;2023-02-28T08:36:12;-1.10;99.90
7654;DHT22;3869;48.406;10.774;2023-02-28T08:38:40;-1.10;99.90
7654;DHT22;3869;48.406;10.774;2023-02-28T08:41:11;-1.00;99.90
7654;DHT22;3869;48.406;10.774;2023-02-28T08:43:40;-0.90;99.90
7654;DHT22;3869;48.406;10.774;2023-02-28T08:46:11;-0.70;99.90
7654;DHT22;3869;48.406;10.774;2023-02-28T08:48:40;-0.80;99.90
7654;DHT22;3869;48.406;10.774;2023-02-28T08:51:10;-0.80;99.90
7654;DHT22;3869;48.406;10.774;2023-02-28T08:53:39;-0.80;99.90
7654;DHT22;3869;48.406;10.774;2023-02-28T08:56:11;-0.70;99.90
7654;DHT22;3869;48.406;10.774;2023-02-28T08:58:40;-0.80;99.90
7654;DHT22;3869;48.406;10.774;2023-02-28T09:01:09;-0.90;99.90
7654;DHT22;3869;48.406;10.774;2023-02-28T09:03:38;-0.80;99.90
7654;DHT22;3869;48.406;10.774;2023-02-28T09:06:08;-0.70;99.90
7654;DHT22;3869;48.406;10.774;2023-02-28T09:08:37;-0.60;99.90
7654;DHT22;3869;48.406;10.774;2023-02-28T09:11:05;-0.50;99.90
7654;DHT22;3869;48.406;10.774;2023-02-28T09:13:35;-0.40;99.90
7654;DHT22;3869;48.406;10.774;2023-02-28T09:16:04;-0.50;99.90
7654;DHT22;3869;48.406;10.774;2023-02-28T09:18:34;-0.30;99.90
7654;DHT22;3869;48.406;10.774;2023-02-28T09:21:03;-0.40;99.90
7654;DHT22;3869;48.406;10.774;2023-02-28T09:23:31;-0.30;99.90
7654;DHT22;3869;48.406;10.774;2023-02-28T09:25:59;-0.10;99.90
7654;DHT22;3869;48.406;10.774;2023-02-28T09:28:27;0.00;99.90
7654;DHT22;3869;48.406;10.774;2023-02-28T09:30:56;0.20;99.90
7654;DHT22;3869;48.406;10.774;2023-02-28T09:33:26;0.20;99.90
7654;DHT22;3869;48.406;10.774;2023-02-28T09:35:58;0.40;99.90
7654;DHT22;3869;48.406;10.774;2023-02-28T09:38:27;0.40;99.90
7654;DHT22;3869;48.406;10.774;2023-02-28T09:40:58;0.50;99.90
7654;DHT22;3869;48.406;10.774;2023-02-28T09:43:29;0.60;99.90
7654;DHT22;3869;48.406;10.774;2023-02-28T09:46:06;0.70;99.90
7654;DHT22;3869;48.406;10.774;2023-02-28T09:48:41;0.80;99.90
7654;DHT22;3869;48.406;10.774;2023-02-28T09:51:16;0.80;99.90
7654;DHT22;3869;48.406;10.774;2023-02-28T09:53:50;0.90;99.90
7654;DHT22;3869;48.406;10.774;2023-02-28T09:56:32;0.90;99.90
7654;DHT22;3869;48.406;10.774;2023-02-28T09:59:10;0.90;99.90
7654;DHT22;3869;48.406;10.774;2023-02-28T10:01:49;0.90;99.90
7654;DHT22;3869;48.406;10.774;2023-02-28T10:04:42;0.80;99.90
7654;DHT22;3869;48.406;10.774;2023-02-28T10:07:21;0.90;99.90
7654;DHT22;3869;48.406;10.774;2023-02-28T10:09:54;0.90;99.90
7654;DHT22;3869;48.406;10.774;2023-02-28T10:12:24;0.70;99.90
7654;DHT22;3869;48.406;10.774;2023-02-28T10:14:54;0.70;99.90
7654;DHT22;3869;48.406;10.774;2023-02-28T10:17:27;0.80;99.90
7654;DHT22;3869;48.406;10.774;2023-02-28T10:20:02;0.90;99.90
7654;DHT22;3869;48.406;10.774;2023-02-28T10:22:40;1.10;99.90
7654;DHT22;3869;48.406;10.774;2023-02-28T10:25:18;1.00;99.90
7654;DHT22;3869;48.406;10.774;2023-02-28T10:27:46;1.10;99.90
7654;DHT22;3869;48.406;10.774;2023-02-28T10:30:14;1.20;99.90
7654;DHT22;3869;48.406;10.774;2023-02-28T10:32:49;1.20;99.90
7654;DHT22;3869;48.406;10.774;2023-02-28T10:35:19;1.30;99.90
7654;DHT22;3869;48.406;10.774;2023-02-28T10:37:50;1.30;99.90
7654;DHT22;3869;48.406;10.774;2023-02-28T10:40:32;1.30;99.90
7654;DHT22;3869;48.406;10.774;2023-02-28T10:43:03;1.20;99.90
7654;DHT22;3869;48.406;10.774;2023-02-28T10:45:32;1.10;99.90
7654;DHT22;3869;48.406;10.774;2023-02-28T10:48:10;1.00;99.90
7654;DHT22;3869;48.406;10.774;2023-02-28T10:50:54;0.90;99.90
7654;DHT22;3869;48.406;10.774;2023-02-28T10:53:31;1.00;99.90
7654;DHT22;3869;48.406;10.774;2023-02-28T10:56:06;1.10;99.90
7654;DHT22;3869;48.406;10.774;2023-02-28T10:58:48;1.10;99.90
7654;DHT22;3869;48.406;10.774;2023-02-28T11:01:19;1.20;99.90
7654;DHT22;3869;48.406;10.774;2023-02-28T11:03:49;1.30;99.90
7654;DHT22;3869;48.406;10.774;2023-02-28T11:06:20;1.40;99.90
7654;DHT22;3869;48.406;10.774;2023-02-28T11:08:51;1.50;99.90
7654;DHT22;3869;48.406;10.774;2023-02-28T11:11:21;1.60;99.90
7654;DHT22;3869;48.406;10.774;2023-02-28T11:13:52;1.60;99.90
7654;DHT22;3869;48.406;10.774;2023-02-28T11:16:22;1.50;99.90
7654;DHT22;3869;48.406;10.774;2023-02-28T11:19:00;1.40;99.90
7654;DHT22;3869;48.406;10.774;2023-02-28T11:21:31;1.40;99.90
7654;DHT22;3869;48.406;10.774;2023-02-28T11:24:04;1.30;99.90
7654;DHT22;3869;48.406;10.774;2023-02-28T11:26:40;1.40;99.90
7654;DHT22;3869;48.406;10.774;2023-02-28T11:29:18;1.50;99.90
7654;DHT22;3869;48.406;10.774;2023-02-28T11:32:12;1.60;99.90
7654;DHT22;3869;48.406;10.774;2023-02-28T11:34:43;1.70;99.90
7654;DHT22;3869;48.406;10.774;2023-02-28T11:37:13;1.80;99.90
7654;DHT22;3869;48.406;10.774;2023-02-28T11:39:43;1.90;99.90
7654;DHT22;3869;48.406;10.774;2023-02-28T11:42:24;2.00;99.90
7654;DHT22;3869;48.406;10.774;2023-02-28T11:45:07;2.10;99.90
7654;DHT22;3869;48.406;10.774;2023-02-28T11:47:45;2.30;99.90
7654;DHT22;3869;48.406;10.774;2023-02-28T11:50:42;2.40;99.90
7654;DHT22;3869;48.406;10.774;2023-02-28T11:53:20;2.50;99.90
7654;DHT22;3869;48.406;10.774;2023-02-28T11:55:53;2.50;99.90
7654;DHT22;3869;48.406;10.774;2023-02-28T11:58:33;2.40;99.90
7654;DHT22;3869;48.406;10.774;2023-02-28T12:01:19;2.30;99.90
7654;DHT22;3869;48.406;10.774;2023-02-28T12:03:58;2.40;99.90
7654;DHT22;3869;48.406;10.774;2023-02-28T12:06:36;2.50;99.90
7654;DHT22;3869;48.406;10.774;2023-02-28T12:09:20;2.50;99.90
7654;DHT22;3869;48.406;10.774;2023-02-28T12:11:55;2.50;99.90
7654;DHT22;3869;48.406;10.774;2023-02-28T12:14:59;2.50;99.90
7654;DHT22;3869;48.406;10.774;2023-02-28T12:17:37;2.60;99.90
7654;DHT22;3869;48.406;10.774;2023-02-28T12:20:17;2.70;99.90
7654;DHT22;3869;48.406;10.774;2023-02-28T12:22:55;2.80;99.90
7654;DHT22;3869;48.406;10.774;2023-02-28T12:25:52;2.90;99.90
7654;DHT22;3869;48.406;10.774;2023-02-28T12:28:26;2.80;99.90
7654;DHT22;3869;48.406;10.774;2023-02-28T12:30:59;2.60;99.70
7654;DHT22;3869;48.406;10.774;2023-02-28T12:33:32;2.70;99.90
7654;DHT22;3869;48.406;10.774;2023-02-28T12:36:04;2.80;99.90
7654;DHT22;3869;48.406;10.774;2023-02-28T12:38:39;2.90;99.90
7654;DHT22;3869;48.406;10.774;2023-02-28T12:41:13;3.00;99.90
7654;DHT22;3869;48.406;10.774;2023-02-28T12:43:44;3.00;99.90
7654;DHT22;3869;48.406;10.774;2023-02-28T12:46:16;3.00;99.90
7654;DHT22;3869;48.406;10.774;2023-02-28T12:48:48;3.10;99.90
7654;DHT22;3869;48.406;10.774;2023-02-28T12:51:18;3.00;99.90
7654;DHT22;3869;48.406;10.774;2023-02-28T12:53:58;2.80;99.90
7654;DHT22;3869;48.406;10.774;2023-02-28T12:56:35;2.90;99.80
7654;DHT22;3869;48.406;10.774;2023-02-28T12:59:10;3.00;99.80
7654;DHT22;3869;48.406;10.774;2023-02-28T13:02:00;3.10;99.40
7654;DHT22;3869;48.406;10.774;2023-02-28T13:04:45;3.10;99.40
7654;DHT22;3869;48.406;10.774;2023-02-28T13:07:40;3.20;99.70
7654;DHT22;3869;48.406;10.774;2023-02-28T13:10:12;3.10;99.00
7654;DHT22;3869;48.406;10.774;2023-02-28T13:12:48;3.10;99.40
7654;DHT22;3869;48.406;10.774;2023-02-28T13:15:19;3.20;99.60
7654;DHT22;3869;48.406;10.774;2023-02-28T13:17:52;3.20;99.20
7654;DHT22;3869;48.406;10.774;2023-02-28T13:20:21;3.20;99.50
7654;DHT22;3869;48.406;10.774;2023-02-28T13:22:53;3.30;99.50
7654;DHT22;3869;48.406;10.774;2023-02-28T13:34:37;3.20;99.50
7654;DHT22;3869;48.406;10.774;2023-02-28T13:37:34;3.20;99.80
7654;DHT22;3869;48.406;10.774;2023-02-28T13:40:29;3.30;99.60
7654;DHT22;3869;48.406;10.774;2023-02-28T13:43:07;3.30;99.50
7654;DHT22;3869;48.406;10.774;2023-02-28T13:45:35;3.10;99.00
7654;DHT22;3869;48.406;10.774;2023-02-28T13:48:16;3.00;99.30
7654;DHT22;3869;48.406;10.774;2023-02-28T13:50:46;3.00;99.50
7654;DHT22;3869;48.406;10.774;2023-02-28T13:53:51;3.00;99.40
7654;DHT22;3869;48.406;10.774;2023-02-28T13:56:30;2.90;99.50
7654;DHT22;3869;48.406;10.774;2023-02-28T13:59:06;3.10;99.90
7654;DHT22;3869;48.406;10.774;2023-02-28T14:01:48;3.10;99.40
7654;DHT22;3869;48.406;10.774;2023-02-28T14:04:40;3.10;99.20
7654;DHT22;3869;48.406;10.774;2023-02-28T14:07:18;3.00;99.20
7654;DHT22;3869;48.406;10.774;2023-02-28T14:09:54;3.00;99.10
7654;DHT22;3869;48.406;10.774;2023-02-28T14:12:55;2.90;99.60
7654;DHT22;3869;48.406;10.774;2023-02-28T14:15:40;2.90;99.20
7654;DHT22;3869;48.406;10.774;2023-02-28T14:18:19;3.00;99.50
7654;DHT22;3869;48.406;10.774;2023-02-28T14:20:54;3.00;99.40
7654;DHT22;3869;48.406;10.774;2023-02-28T14:23:35;3.00;99.20
7654;DHT22;3869;48.406;10.774;2023-02-28T14:26:13;3.10;99.40
7654;DHT22;3869;48.406;10.774;2023-02-28T14:29:10;3.20;99.60
7654;DHT22;3869;48.406;10.774;2023-02-28T14:31:45;3.20;99.30
7654;DHT22;3869;48.406;10.774;2023-02-28T14:34:32;3.20;99.40
7654;DHT22;3869;48.406;10.774;2023-02-28T14:37:03;3.20;99.70
7654;DHT22;3869;48.406;10.774;2023-02-28T14:39:33;3.20;99.40
7654;DHT22;3869;48.406;10.774;2023-02-28T14:42:03;3.20;99.30
7654;DHT22;3869;48.406;10.774;2023-02-28T14:44:31;3.20;99.30
7654;DHT22;3869;48.406;10.774;2023-02-28T14:47:01;3.20;99.50
7654;DHT22;3869;48.406;10.774;2023-02-28T14:49:36;3.30;99.50
7654;DHT22;3869;48.406;10.774;2023-02-28T14:52:09;3.30;99.10
7654;DHT22;3869;48.406;10.774;2023-02-28T14:54:42;3.40;99.40
7654;DHT22;3869;48.406;10.774;2023-02-28T14:57:22;3.40;99.20
7654;DHT22;3869;48.406;10.774;2023-02-28T14:59:59;3.40;99.20
7654;DHT22;3869;48.406;10.774;2023-02-28T15:02:30;3.40;99.20
7654;DHT22;3869;48.406;10.774;2023-02-28T15:05:00;3.40;99.40
7654;DHT22;3869;48.406;10.774;2023-02-28T15:07:28;3.40;98.80
7654;DHT22;3869;48.406;10.774;2023-02-28T15:10:16;3.40;99.00
7654;DHT22;3869;48.406;10.774;2023-02-28T15:12:50;3.50;99.00
7654;DHT22;3869;48.406;10.774;2023-02-28T15:15:19;3.50;99.00
7654;DHT22;3869;48.406;10.774;2023-02-28T15:18:06;3.50;99.10
7654;DHT22;3869;48.406;10.774;2023-02-28T15:20:35;3.50;98.90
7654;DHT22;3869;48.406;10.774;2023-02-28T15:23:05;3.50;98.70
7654;DHT22;3869;48.406;10.774;2023-02-28T15:25:35;3.50;98.70
7654;DHT22;3869;48.406;10.774;2023-02-28T15:28:03;3.40;98.90
7654;DHT22;3869;48.406;10.774;2023-02-28T15:30:31;3.50;99.10
7654;DHT22;3869;48.406;10.774;2023-02-28T15:33:17;3.50;99.20
7654;DHT22;3869;48.406;10.774;2023-02-28T15:35:46;3.50;99.10
7654;DHT22;3869;48.406;10.774;2023-02-28T15:38:18;3.40;99.00
7654;DHT22;3869;48.406;10.774;2023-02-28T15:40:51;3.30;98.90
7654;DHT22;3869;48.406;10.774;2023-02-28T15:43:27;3.30;98.90
7654;DHT22;3869;48.406;10.774;2023-02-28T15:45:58;3.20;99.00
7654;DHT22;3869;48.406;10.774;2023-02-28T15:48:29;3.10;99.00
7654;DHT22;3869;48.406;10.774;2023-02-28T15:51:01;3.10;99.20
7654;DHT22;3869;48.406;10.774;2023-02-28T15:53:32;3.10;99.30
7654;DHT22;3869;48.406;10.774;2023-02-28T15:56:06;3.10;99.80
7654;DHT22;3869;48.406;10.774;2023-02-28T15:58:42;3.10;99.50
7654;DHT22;3869;48.406;10.774;2023-02-28T16:01:23;3.00;99.30
7654;DHT22;3869;48.406;10.774;2023-02-28T16:03:54;3.00;99.50
7654;DHT22;3869;48.406;10.774;2023-02-28T16:06:40;3.00;99.50
7654;DHT22;3869;48.406;10.774;2023-02-28T16:09:11;3.00;99.70
7654;DHT22;3869;48.406;10.774;2023-02-28T16:11:44;2.90;99.80
7654;DHT22;3869;48.406;10.774;2023-02-28T16:14:17;2.90;99.90
7654;DHT22;3869;48.406;10.774;2023-02-28T16:16:47;2.90;99.80
7654;DHT22;3869;48.406;10.774;2023-02-28T16:19:16;2.90;99.80
7654;DHT22;3869;48.406;10.774;2023-02-28T16:21:44;2.80;99.80
7654;DHT22;3869;48.406;10.774;2023-02-28T16:24:12;2.80;99.90
7654;DHT22;3869;48.406;10.774;2023-02-28T16:26:44;2.80;99.90
7654;DHT22;3869;48.406;10.774;2023-02-28T16:29:14;2.80;99.90
7654;DHT22;3869;48.406;10.774;2023-02-28T16:31:46;2.70;99.90
7654;DHT22;3869;48.406;10.774;2023-02-28T16:34:14;2.70;99.90
7654;DHT22;3869;48.406;10.774;2023-02-28T16:36:42;2.60;99.90
7654;DHT22;3869;48.406;10.774;2023-02-28T16:39:13;2.50;99.90
7654;DHT22;3869;48.406;10.774;2023-02-28T16:41:45;2.50;99.90